createdAt,value
2023-05-19T00:02:12.530Z,16.40
2023-05-19T00:04:37.814Z,16.40
2023-05-19T00:07:05.712Z,16.40
2023-05-19T00:09:31.519Z,16.50
2023-05-19T00:11:56.871Z,16.40
2023-05-19T00:14:21.941Z,16.40
2023-05-19T00:16:47.682Z,16.40
2023-05-19T00:19:12.486Z,16.40
2023-05-19T00:21:39.054Z,16.40
2023-05-19T00:24:06.711Z,16.40
2023-05-19T00:26:31.655Z,16.50
2023-05-19T00:29:03.763Z,16.50
2023-05-19T00:31:28.627Z,16.60
2023-05-19T00:33:53.495Z,16.70
2023-05-19T00:36:18.356Z,16.80
2023-05-19T00:38:43.050Z,16.80
2023-05-19T00:41:09.711Z,16.80
2023-05-19T00:43:34.881Z,16.90
2023-05-19T00:45:59.590Z,16.90
2023-05-19T00:48:24.618Z,16.80
2023-05-19T00:50:50.328Z,16.80
2023-05-19T00:53:17.049Z,16.90
2023-05-19T00:55:42.053Z,16.90
2023-05-19T00:58:09.230Z,17.00
2023-05-19T01:00:34.706Z,16.90
2023-05-19T01:03:00.374Z,16.90
2023-05-19T01:05:25.225Z,16.80
2023-05-19T01:07:53.614Z,16.80
2023-05-19T01:10:18.256Z,16.80
2023-05-19T01:12:44.698Z,16.80
2023-05-19T01:15:12.413Z,16.90
2023-05-19T01:17:45.944Z,16.90
2023-05-19T01:20:18.716Z,16.90
2023-05-19T01:23:15.323Z,16.90
2023-05-19T01:26:04.227Z,16.80
2023-05-19T01:28:47.205Z,16.80
2023-05-19T01:31:14.023Z,16.70
2023-05-19T01:33:41.284Z,16.70
2023-05-19T01:36:08.829Z,16.60
2023-05-19T01:38:35.764Z,16.70
2023-05-19T01:41:02.083Z,16.60
2023-05-19T01:43:29.239Z,16.60
2023-05-19T01:45:54.807Z,16.50
2023-05-19T01:48:21.918Z,16.50
2023-05-19T01:50:47.098Z,16.50
2023-05-19T01:53:12.768Z,16.50
2023-05-19T01:55:42.823Z,16.50
2023-05-19T01:58:15.595Z,16.40
2023-05-19T02:00:54.596Z,16.30
2023-05-19T02:03:48.175Z,16.30
2023-05-19T02:06:32.361Z,16.10
2023-05-19T02:09:03.810Z,16.10
2023-05-19T02:11:37.497Z,16.10
2023-05-19T02:14:07.108Z,16.10
2023-05-19T02:16:32.213Z,16.00
2023-05-19T02:18:59.819Z,16.00
2023-05-19T02:21:25.130Z,16.00
2023-05-19T02:23:50.511Z,16.00
2023-05-19T02:26:17.891Z,15.90
2023-05-19T02:28:42.606Z,16.00
2023-05-19T02:31:09.091Z,16.00
2023-05-19T02:33:34.180Z,16.00
2023-05-19T02:36:01.945Z,15.90
2023-05-19T02:38:26.928Z,15.90
2023-05-19T02:40:54.217Z,15.90
2023-05-19T02:43:18.961Z,15.90
2023-05-19T02:45:44.053Z,15.90
2023-05-19T02:48:08.965Z,15.90
2023-05-19T02:50:33.837Z,15.90
2023-05-19T02:53:00.011Z,15.90
2023-05-19T02:55:24.769Z,15.90
2023-05-19T02:57:49.551Z,15.80
2023-05-19T03:00:15.356Z,15.80
2023-05-19T03:02:41.574Z,15.90
2023-05-19T03:05:08.163Z,15.90
2023-05-19T03:07:33.920Z,16.00
2023-05-19T03:10:00.215Z,16.10
2023-05-19T03:12:24.984Z,16.30
2023-05-19T03:14:49.684Z,16.50
2023-05-19T03:17:14.516Z,16.60
2023-05-19T03:19:39.421Z,16.90
2023-05-19T03:22:04.504Z,17.00
2023-05-19T03:24:30.448Z,17.20
2023-05-19T03:26:57.078Z,17.30
2023-05-19T03:29:22.333Z,17.20
2023-05-19T03:31:48.344Z,17.30
2023-05-19T03:34:14.793Z,17.10
2023-05-19T03:36:40.214Z,17.10
2023-05-19T03:39:11.289Z,17.20
2023-05-19T03:41:36.266Z,17.10
2023-05-19T03:44:02.858Z,17.10
2023-05-19T03:46:27.783Z,17.00
2023-05-19T03:49:04.958Z,17.10
2023-05-19T03:51:59.362Z,17.60
2023-05-19T03:54:34.039Z,18.00
2023-05-19T03:57:01.313Z,18.30
2023-05-19T03:59:27.970Z,18.70
2023-05-19T04:01:52.945Z,19.00
2023-05-19T04:04:17.888Z,19.00
2023-05-19T04:06:43.909Z,18.80
2023-05-19T04:09:14.667Z,18.90
2023-05-19T04:11:39.837Z,19.20
2023-05-19T04:14:06.280Z,19.60
2023-05-19T04:16:33.329Z,19.70
2023-05-19T04:18:58.113Z,19.60
2023-05-19T04:21:23.417Z,19.60
2023-05-19T04:23:48.181Z,19.60
2023-05-19T04:26:14.992Z,19.60
2023-05-19T04:28:42.717Z,19.70
2023-05-19T04:31:11.320Z,19.60
2023-05-19T04:33:38.776Z,19.70
2023-05-19T04:36:05.837Z,19.50
2023-05-19T04:38:31.226Z,19.50
2023-05-19T04:41:01.792Z,19.50
2023-05-19T04:43:29.365Z,19.40
2023-05-19T04:45:54.396Z,19.50
2023-05-19T04:48:21.820Z,19.40
2023-05-19T04:50:52.290Z,19.50
2023-05-19T04:53:17.239Z,19.70
2023-05-19T04:55:42.504Z,19.70
2023-05-19T04:58:07.727Z,19.70
2023-05-19T05:00:32.548Z,19.70
2023-05-19T05:03:00.778Z,19.80
2023-05-19T05:05:27.957Z,20.00
2023-05-19T05:07:55.023Z,20.10
2023-05-19T05:10:21.847Z,20.20
2023-05-19T05:12:47.272Z,20.30
2023-05-19T05:15:13.123Z,20.30
2023-05-19T05:17:38.542Z,20.10
2023-05-19T05:20:05.011Z,20.20
2023-05-19T05:22:30.860Z,20.10
2023-05-19T05:24:57.846Z,20.30
2023-05-19T05:27:22.451Z,20.20
2023-05-19T05:29:47.529Z,20.40
2023-05-19T05:32:12.582Z,20.30
2023-05-19T05:34:40.351Z,20.40
2023-05-19T05:37:05.180Z,20.60
2023-05-19T05:39:31.962Z,20.60
2023-05-19T05:41:59.251Z,20.50
2023-05-19T05:44:24.195Z,20.40
2023-05-19T05:46:51.450Z,20.40
2023-05-19T05:49:17.005Z,20.70
2023-05-19T05:51:54.245Z,20.90
2023-05-19T05:54:30.258Z,21.20
2023-05-19T05:56:55.693Z,21.60
2023-05-19T05:59:22.474Z,21.90
2023-05-19T06:01:47.370Z,21.80
2023-05-19T06:04:15.813Z,21.70
2023-05-19T06:06:40.566Z,21.70
2023-05-19T06:09:06.796Z,21.80
2023-05-19T06:11:31.776Z,21.90
2023-05-19T06:13:57.812Z,22.40
2023-05-19T06:16:43.042Z,22.70
2023-05-19T06:19:08.596Z,22.80
2023-05-19T06:21:33.672Z,23.00
2023-05-19T06:23:58.390Z,22.90
2023-05-19T06:26:24.564Z,22.90
2023-05-19T06:28:49.486Z,23.10
2023-05-19T06:31:16.897Z,23.40
2023-05-19T06:34:05.963Z,23.70
2023-05-19T06:36:30.535Z,23.40
2023-05-19T06:38:56.841Z,23.30
2023-05-19T06:41:22.100Z,23.40
2023-05-19T06:43:49.617Z,23.60
2023-05-19T06:46:14.265Z,23.80
2023-05-19T06:48:41.421Z,23.70
2023-05-19T06:51:10.284Z,23.90
2023-05-19T06:53:37.092Z,23.60
2023-05-19T06:56:06.456Z,23.30
2023-05-19T06:58:33.417Z,23.30
2023-05-19T07:01:01.040Z,23.30
2023-05-19T07:03:31.737Z,23.20
2023-05-19T07:05:57.377Z,23.20
2023-05-19T07:08:23.446Z,23.10
2023-05-19T07:10:48.208Z,23.10
2023-05-19T07:13:14.504Z,23.30
2023-05-19T07:15:39.258Z,23.40
2023-05-19T07:18:03.955Z,23.50
2023-05-19T07:20:28.757Z,23.70
2023-05-19T07:22:54.959Z,23.90
2023-05-19T07:25:21.015Z,23.90
2023-05-19T07:27:46.119Z,24.00
2023-05-19T07:30:11.704Z,24.20
2023-05-19T07:32:36.502Z,24.20
2023-05-19T07:35:01.199Z,24.20
2023-05-19T07:37:29.906Z,23.90
2023-05-19T07:39:57.140Z,23.80
2023-05-19T07:42:23.360Z,23.80
2023-05-19T07:44:47.962Z,23.90
2023-05-19T07:47:12.534Z,23.80
2023-05-19T07:49:37.306Z,24.00
2023-05-19T07:52:02.019Z,24.20
2023-05-19T07:54:26.831Z,24.20
2023-05-19T07:56:51.820Z,24.50
2023-05-19T07:59:18.277Z,24.70
2023-05-19T08:01:42.797Z,24.80
2023-05-19T08:04:09.063Z,24.80
2023-05-19T08:06:35.576Z,24.50
2023-05-19T08:09:00.505Z,24.50
2023-05-19T08:11:25.997Z,24.60
2023-05-19T08:13:51.096Z,24.60
2023-05-19T08:16:17.200Z,24.80
2023-05-19T08:18:42.152Z,25.00
2023-05-19T08:21:07.627Z,25.30
2023-05-19T08:23:32.327Z,25.30
2023-05-19T08:25:57.084Z,25.20
2023-05-19T08:28:22.148Z,24.80
2023-05-19T08:30:46.942Z,24.90
2023-05-19T08:33:13.693Z,25.00
2023-05-19T08:35:38.675Z,25.00
2023-05-19T08:38:03.783Z,24.90
2023-05-19T08:40:32.167Z,24.90
2023-05-19T08:42:57.083Z,24.80
2023-05-19T08:45:22.237Z,25.00
2023-05-19T08:47:48.709Z,25.10
2023-05-19T08:50:18.855Z,25.10
2023-05-19T08:52:53.409Z,25.10
2023-05-19T08:55:31.313Z,25.20
2023-05-19T08:57:57.522Z,24.90
2023-05-19T09:00:22.756Z,24.70
2023-05-19T09:02:59.880Z,24.60
2023-05-19T09:05:33.442Z,24.50
2023-05-19T09:07:58.395Z,24.50
2023-05-19T09:10:23.047Z,24.70
2023-05-19T09:12:50.090Z,24.70
2023-05-19T09:15:16.437Z,24.60
2023-05-19T09:17:41.395Z,24.50
2023-05-19T09:20:11.064Z,24.60
2023-05-19T09:22:41.950Z,24.80
2023-05-19T09:25:07.623Z,24.90
2023-05-19T09:27:33.961Z,25.00
2023-05-19T09:30:08.780Z,25.00
2023-05-19T09:32:37.502Z,25.00
2023-05-19T09:35:04.860Z,25.10
2023-05-19T09:37:30.189Z,25.30
2023-05-19T09:39:56.677Z,25.00
2023-05-19T09:42:27.956Z,25.10
2023-05-19T09:44:52.626Z,25.10
2023-05-19T09:47:18.058Z,25.20
2023-05-19T09:49:48.539Z,25.10
2023-05-19T09:52:17.324Z,25.10
2023-05-19T09:54:42.230Z,25.00
2023-05-19T09:57:09.009Z,25.10
2023-05-19T09:59:34.315Z,25.20
2023-05-19T10:02:00.405Z,25.30
2023-05-19T10:04:27.015Z,25.40
2023-05-19T10:06:54.589Z,25.60
2023-05-19T10:09:19.746Z,25.50
2023-05-19T10:11:45.234Z,25.30
2023-05-19T10:14:11.853Z,25.10
2023-05-19T10:16:37.875Z,25.00
2023-05-19T10:19:04.118Z,25.00
2023-05-19T10:21:29.874Z,25.00
2023-05-19T10:23:54.743Z,25.00
2023-05-19T10:26:20.127Z,25.10
2023-05-19T10:28:47.002Z,25.30
2023-05-19T10:31:20.802Z,25.40
2023-05-19T10:34:02.306Z,25.60
2023-05-19T10:36:46.057Z,26.00
2023-05-19T10:39:18.439Z,26.00
2023-05-19T10:41:48.499Z,26.00
2023-05-19T10:44:21.426Z,25.70
2023-05-19T10:46:47.730Z,25.70
2023-05-19T10:49:21.343Z,25.90
2023-05-19T10:51:47.091Z,25.90
2023-05-19T10:54:14.417Z,26.10
2023-05-19T10:56:42.658Z,26.30
2023-05-19T10:59:07.333Z,26.20
2023-05-19T11:01:34.172Z,26.40
2023-05-19T11:04:06.934Z,26.30
2023-05-19T11:06:32.859Z,25.90
2023-05-19T11:09:00.861Z,25.90
2023-05-19T11:11:26.475Z,25.70
2023-05-19T11:13:53.827Z,25.70
2023-05-19T11:16:22.267Z,25.70
2023-05-19T11:18:50.775Z,25.80
2023-05-19T11:21:17.076Z,26.00
2023-05-19T11:23:42.327Z,26.30
2023-05-19T11:26:09.359Z,26.00
2023-05-19T11:28:36.652Z,25.90
2023-05-19T11:31:02.549Z,26.20
2023-05-19T11:33:27.949Z,26.40
2023-05-19T11:35:53.043Z,26.30
2023-05-19T11:38:20.815Z,26.30
2023-05-19T11:40:46.321Z,26.30
2023-05-19T11:43:11.314Z,26.40
2023-05-19T11:45:37.116Z,26.40
2023-05-19T11:48:04.549Z,26.40
2023-05-19T11:50:29.669Z,26.70
2023-05-19T11:52:54.534Z,26.50
2023-05-19T11:55:22.593Z,26.60
2023-05-19T11:58:03.964Z,26.60
2023-05-19T12:00:30.391Z,26.70
2023-05-19T12:02:55.711Z,26.80
2023-05-19T12:05:22.870Z,26.90
2023-05-19T12:07:49.820Z,26.80
2023-05-19T12:10:14.713Z,26.80
2023-05-19T12:12:41.732Z,27.00
2023-05-19T12:15:07.814Z,27.00
2023-05-19T12:17:34.894Z,26.80
2023-05-19T12:20:01.646Z,26.50
2023-05-19T12:22:29.299Z,26.20
2023-05-19T12:24:54.012Z,26.10
2023-05-19T12:27:20.863Z,26.30
2023-05-19T12:30:08.784Z,26.40
2023-05-19T12:32:36.487Z,26.20
2023-05-19T12:35:03.958Z,25.80
2023-05-19T12:37:30.372Z,25.60
2023-05-19T12:39:56.726Z,25.50
2023-05-19T12:42:21.536Z,25.70
2023-05-19T12:44:50.613Z,25.80
2023-05-19T12:47:15.831Z,26.10
2023-05-19T12:49:56.894Z,26.20
2023-05-19T12:52:23.337Z,26.50
2023-05-19T12:54:48.012Z,26.70
2023-05-19T12:57:12.940Z,26.90
2023-05-19T12:59:39.060Z,26.70
2023-05-19T13:02:05.737Z,26.80
2023-05-19T13:04:30.646Z,26.70
2023-05-19T13:06:55.901Z,26.60
2023-05-19T13:09:21.349Z,26.40
2023-05-19T13:11:51.197Z,26.30
2023-05-19T13:14:17.276Z,26.20
2023-05-19T13:16:42.750Z,26.40
2023-05-19T13:19:23.869Z,26.50
2023-05-19T13:21:51.190Z,26.50
2023-05-19T13:24:15.910Z,26.50
2023-05-19T13:26:41.829Z,26.60
2023-05-19T13:29:06.584Z,26.60
2023-05-19T13:31:31.327Z,26.60
2023-05-19T13:33:56.033Z,26.50
2023-05-19T13:36:22.491Z,26.40
2023-05-19T13:38:47.211Z,26.40
2023-05-19T13:41:13.710Z,26.40
2023-05-19T13:43:38.644Z,26.40
2023-05-19T13:46:03.599Z,26.40
2023-05-19T13:48:28.674Z,26.50
2023-05-19T13:50:55.704Z,26.60
2023-05-19T13:53:21.836Z,26.40
2023-05-19T13:55:46.972Z,26.40
2023-05-19T13:58:12.667Z,26.40
2023-05-19T14:00:37.571Z,26.50
2023-05-19T14:03:02.683Z,26.70
2023-05-19T14:05:29.123Z,26.00
2023-05-19T14:07:54.508Z,24.30
2023-05-19T14:10:20.482Z,23.50
2023-05-19T14:13:14.038Z,23.10
2023-05-19T14:15:29.724Z,22.70
2023-05-19T14:17:54.380Z,21.80
2023-05-19T14:20:19.233Z,21.00
2023-05-19T14:22:43.892Z,20.70
2023-05-19T14:25:09.655Z,20.50
2023-05-19T14:27:35.693Z,20.30
2023-05-19T14:30:00.380Z,20.30
2023-05-19T14:32:25.297Z,20.30
2023-05-19T14:34:52.972Z,20.20
2023-05-19T14:37:17.776Z,20.30
2023-05-19T14:39:42.412Z,20.40
2023-05-19T14:42:07.293Z,20.50
2023-05-19T14:44:33.889Z,20.50
2023-05-19T14:46:58.564Z,20.60
2023-05-19T14:49:23.162Z,20.60
2023-05-19T14:51:47.751Z,20.70
2023-05-19T14:54:12.320Z,20.60
2023-05-19T14:56:36.887Z,20.60
2023-05-19T14:59:01.582Z,20.60
2023-05-19T15:01:27.675Z,20.70
2023-05-19T15:03:52.499Z,20.70
2023-05-19T15:06:17.120Z,20.80
2023-05-19T15:08:41.954Z,20.80
2023-05-19T15:11:06.613Z,20.90
2023-05-19T15:13:31.233Z,20.90
2023-05-19T15:16:08.281Z,21.00
2023-05-19T15:18:42.314Z,21.00
2023-05-19T15:21:07.555Z,21.10
2023-05-19T15:23:32.331Z,21.10
2023-05-19T15:25:57.195Z,21.10
2023-05-19T15:28:21.862Z,21.20
2023-05-19T15:30:47.032Z,21.30
2023-05-19T15:33:11.967Z,21.30
2023-05-19T15:35:38.002Z,21.30
2023-05-19T15:38:06.294Z,21.30
2023-05-19T15:40:31.056Z,21.30
2023-05-19T15:42:55.756Z,21.30
2023-05-19T15:45:20.415Z,21.30
2023-05-19T15:47:45.075Z,21.20
2023-05-19T15:50:10.817Z,21.10
2023-05-19T15:52:37.037Z,21.00
2023-05-19T15:55:01.517Z,20.90
2023-05-19T15:57:28.352Z,20.90
2023-05-19T15:59:52.916Z,21.00
2023-05-19T16:02:17.761Z,20.90
2023-05-19T16:04:42.349Z,20.90
2023-05-19T16:07:07.299Z,20.90
2023-05-19T16:09:33.297Z,20.80
2023-05-19T16:11:57.862Z,20.80
2023-05-19T16:14:23.279Z,20.80
2023-05-19T16:16:48.143Z,20.70
2023-05-19T16:19:13.167Z,20.70
2023-05-19T16:21:37.848Z,20.70
2023-05-19T16:24:02.540Z,20.70
2023-05-19T16:26:29.052Z,20.60
2023-05-19T16:28:53.572Z,20.70
2023-05-19T16:31:18.272Z,20.70
2023-05-19T16:33:42.802Z,20.70
2023-05-19T16:36:08.088Z,20.70
2023-05-19T16:38:32.785Z,20.70
2023-05-19T16:40:57.561Z,20.70
2023-05-19T16:43:23.371Z,20.70
2023-05-19T16:45:47.952Z,20.70
2023-05-19T16:48:12.698Z,20.70
2023-05-19T16:50:37.869Z,20.70
2023-05-19T16:53:02.566Z,20.70
2023-05-19T16:55:27.167Z,20.80
2023-05-19T16:57:51.747Z,20.80
2023-05-19T17:00:18.308Z,20.90
2023-05-19T17:02:43.123Z,21.00
2023-05-19T17:05:08.478Z,21.00
2023-05-19T17:07:33.395Z,21.00
2023-05-19T17:09:58.093Z,21.10
2023-05-19T17:12:22.751Z,21.10
2023-05-19T17:14:47.534Z,21.10
2023-05-19T17:17:13.707Z,21.20
2023-05-19T17:19:38.367Z,21.20
2023-05-19T17:22:03.024Z,21.20
2023-05-19T17:24:28.882Z,21.20
2023-05-19T17:26:53.519Z,21.10
2023-05-19T17:29:18.117Z,21.20
2023-05-19T17:31:42.805Z,21.20
2023-05-19T17:34:09.152Z,21.30
2023-05-19T17:36:33.651Z,21.30
2023-05-19T17:38:58.539Z,21.40
2023-05-19T17:41:23.525Z,21.50
2023-05-19T17:43:48.434Z,21.50
2023-05-19T17:46:13.418Z,21.60
2023-05-19T17:48:40.085Z,21.70
2023-05-19T17:51:07.785Z,21.70
2023-05-19T17:53:32.981Z,21.80
2023-05-19T17:56:00.700Z,21.80
2023-05-19T17:58:26.065Z,21.90
2023-05-19T18:00:51.577Z,21.90
2023-05-19T18:03:17.228Z,22.00
2023-05-19T18:05:43.413Z,22.00
2023-05-19T18:08:09.695Z,22.00
2023-05-19T18:10:38.476Z,22.00
2023-05-19T18:13:03.633Z,21.90
2023-05-19T18:15:31.096Z,21.90
2023-05-19T18:17:55.784Z,21.80
2023-05-19T18:20:20.565Z,21.80
2023-05-19T18:22:45.402Z,21.70
2023-05-19T18:25:12.257Z,21.70
2023-05-19T18:27:36.842Z,21.60
2023-05-19T18:30:01.618Z,21.50
2023-05-19T18:32:29.851Z,21.40
2023-05-19T18:34:54.579Z,21.30
2023-05-19T18:37:19.309Z,21.20
2023-05-19T18:39:43.981Z,20.90
2023-05-19T18:42:10.082Z,20.80
2023-05-19T18:44:34.987Z,20.80
2023-05-19T18:46:59.642Z,20.70
2023-05-19T18:49:27.365Z,20.50
2023-05-19T18:51:52.871Z,20.50
2023-05-19T18:54:17.521Z,20.40
2023-05-19T18:56:42.507Z,20.50
2023-05-19T18:59:09.909Z,20.50
2023-05-19T19:01:34.591Z,20.40
2023-05-19T19:03:59.328Z,20.40
2023-05-19T19:06:24.284Z,20.40
2023-05-19T19:08:48.885Z,20.40
2023-05-19T19:11:13.520Z,20.30
2023-05-19T19:13:38.406Z,20.20
2023-05-19T19:16:12.299Z,20.10
2023-05-19T19:18:40.052Z,20.10
2023-05-19T19:21:07.675Z,20.00
2023-05-19T19:23:32.695Z,20.00
2023-05-19T19:25:57.318Z,20.00
2023-05-19T19:28:23.979Z,19.90
2023-05-19T19:30:48.552Z,19.90
2023-05-19T19:33:18.385Z,19.90
2023-05-19T19:35:42.923Z,19.80
2023-05-19T19:38:07.559Z,19.80
2023-05-19T19:40:32.792Z,19.70
2023-05-19T19:42:57.526Z,19.70
2023-05-19T19:45:22.226Z,19.60
2023-05-19T19:47:47.037Z,19.60
2023-05-19T19:50:13.988Z,19.60
2023-05-19T19:52:38.564Z,19.50
2023-05-19T19:55:03.108Z,19.50
2023-05-19T19:57:31.778Z,19.50
2023-05-19T19:59:59.104Z,19.40
2023-05-19T20:02:24.041Z,19.30
2023-05-19T20:04:50.619Z,19.30
2023-05-19T20:07:19.304Z,19.20
2023-05-19T20:09:46.761Z,19.10
2023-05-19T20:12:11.616Z,19.10
2023-05-19T20:14:36.722Z,19.10
2023-05-19T20:17:01.232Z,19.10
2023-05-19T20:19:31.294Z,19.10
2023-05-19T20:21:57.958Z,19.10
2023-05-19T20:24:25.782Z,19.10
2023-05-19T20:26:54.004Z,19.10
2023-05-19T20:29:18.659Z,19.10
2023-05-19T20:31:43.243Z,19.00
2023-05-19T20:34:07.824Z,19.00
2023-05-19T20:36:32.896Z,19.00
2023-05-19T20:38:57.546Z,19.10
2023-05-19T20:41:24.480Z,19.10
2023-05-19T20:43:48.987Z,19.20
2023-05-19T20:46:13.891Z,19.20
2023-05-19T20:48:38.449Z,19.20
2023-05-19T20:51:02.965Z,19.20
2023-05-19T20:53:27.590Z,19.10
2023-05-19T20:55:52.218Z,19.10
2023-05-19T20:58:18.233Z,19.00
2023-05-19T21:00:42.778Z,19.10
2023-05-19T21:03:07.346Z,19.10
2023-05-19T21:05:32.113Z,19.10
2023-05-19T21:07:57.171Z,19.00
2023-05-19T21:10:21.926Z,19.00
2023-05-19T21:12:47.136Z,19.00
2023-05-19T21:15:14.095Z,18.90
2023-05-19T21:17:38.871Z,19.00
2023-05-19T21:20:03.929Z,19.00
2023-05-19T21:22:29.924Z,19.00
2023-05-19T21:24:55.082Z,18.90
2023-05-19T21:27:19.665Z,19.00
2023-05-19T21:29:44.347Z,18.90
2023-05-19T21:32:10.654Z,18.80
2023-05-19T21:34:35.241Z,18.70
2023-05-19T21:36:59.899Z,18.70
2023-05-19T21:39:24.436Z,18.70
2023-05-19T21:41:49.069Z,18.60
2023-05-19T21:44:13.695Z,18.60
2023-05-19T21:46:38.318Z,18.70
2023-05-19T21:49:05.078Z,18.70
2023-05-19T21:51:31.623Z,18.60
2023-05-19T21:53:56.227Z,18.60
2023-05-19T21:56:21.179Z,18.60
2023-05-19T21:58:45.689Z,18.60
2023-05-19T22:01:10.315Z,18.60
2023-05-19T22:03:34.972Z,18.60
2023-05-19T22:06:01.725Z,18.50
2023-05-19T22:08:26.372Z,18.50
2023-05-19T22:10:51.825Z,18.40
2023-05-19T22:13:16.570Z,18.50
2023-05-19T22:15:41.873Z,18.50
2023-05-19T22:18:07.032Z,18.50
2023-05-19T22:20:31.822Z,18.50
2023-05-19T22:22:59.497Z,18.50
2023-05-19T22:25:24.137Z,18.40
2023-05-19T22:27:48.742Z,18.30
2023-05-19T22:30:13.418Z,18.20
2023-05-19T22:32:38.051Z,18.30
2023-05-19T22:35:02.611Z,18.30
2023-05-19T22:37:29.713Z,18.20
2023-05-19T22:39:55.592Z,18.20
2023-05-19T22:42:20.157Z,18.20
2023-05-19T22:44:45.216Z,18.20
2023-05-19T22:47:13.652Z,18.10
2023-05-19T22:49:38.586Z,18.10
2023-05-19T22:52:03.275Z,18.10
2023-05-19T22:54:27.929Z,18.00
2023-05-19T22:56:54.049Z,18.00
2023-05-19T22:59:19.157Z,18.00
2023-05-19T23:01:43.927Z,18.00
2023-05-19T23:04:08.685Z,17.90
2023-05-19T23:06:33.470Z,17.90
2023-05-19T23:09:03.613Z,18.00
2023-05-19T23:11:28.756Z,17.90
2023-05-19T23:13:55.249Z,17.80
2023-05-19T23:16:20.314Z,17.80
2023-05-19T23:18:45.134Z,17.70
2023-05-19T23:21:09.845Z,17.70
2023-05-19T23:23:35.986Z,17.70
2023-05-19T23:26:01.386Z,17.70
2023-05-19T23:28:26.168Z,17.60
2023-05-19T23:30:54.757Z,17.60
2023-05-19T23:33:19.307Z,17.60
2023-05-19T23:35:43.864Z,17.60
2023-05-19T23:38:08.359Z,17.50
2023-05-19T23:40:32.890Z,17.60
2023-05-19T23:42:57.450Z,17.60
2023-05-19T23:45:25.030Z,17.50
2023-05-19T23:47:51.024Z,17.30
2023-05-19T23:50:15.775Z,17.20
2023-05-19T23:52:40.308Z,17.20
2023-05-19T23:55:05.254Z,17.20
2023-05-19T23:57:29.944Z,17.10
2023-05-19T23:59:54.612Z,17.00
